sensor_id;sensor_type;location;lat;lon;timestamp;pressure;altitude;pressure_sealevel;temperature;humidity
73429;BME280;61643;49.564;17.412;2022-10-16T00:01:13;98507.69;;;12.61;89.55
73429;BME280;61643;49.564;17.412;2022-10-16T00:03:39;98501.50;;;12.61;89.58
73429;BME280;61643;49.564;17.412;2022-10-16T00:06:05;98497.72;;;12.62;89.93
73429;BME280;61643;49.564;17.412;2022-10-16T00:08:31;98507.41;;;12.58;90.57
73429;BME280;61643;49.564;17.412;2022-10-16T00:13:31;98503.28;;;12.40;91.88
73429;BME280;61643;49.564;17.412;2022-10-16T00:15:58;98505.75;;;12.52;91.45
73429;BME280;61643;49.564;17.412;2022-10-16T00:18:24;98502.25;;;12.56;91.19
73429;BME280;61643;49.564;17.412;2022-10-16T00:20:50;98500.63;;;12.55;91.73
73429;BME280;61643;49.564;17.412;2022-10-16T00:23:16;98502.84;;;12.58;91.20
73429;BME280;61643;49.564;17.412;2022-10-16T00:25:41;98505.44;;;12.48;91.87
73429;BME280;61643;49.564;17.412;2022-10-16T00:28:07;98495.75;;;12.47;91.01
73429;BME280;61643;49.564;17.412;2022-10-16T00:30:32;98489.00;;;12.50;90.47
73429;BME280;61643;49.564;17.412;2022-10-16T00:32:57;98494.94;;;12.52;90.54
73429;BME280;61643;49.564;17.412;2022-10-16T00:35:23;98488.22;;;12.54;90.40
73429;BME280;61643;49.564;17.412;2022-10-16T00:37:48;98494.44;;;12.60;90.12
73429;BME280;61643;49.564;17.412;2022-10-16T00:40:14;98496.91;;;12.61;89.96
73429;BME280;61643;49.564;17.412;2022-10-16T00:42:39;98499.03;;;12.54;90.47
73429;BME280;61643;49.564;17.412;2022-10-16T00:45:05;98504.44;;;12.54;89.97
73429;BME280;61643;49.564;17.412;2022-10-16T00:47:43;98499.56;;;12.51;90.25
73429;BME280;61643;49.564;17.412;2022-10-16T00:50:32;98510.06;;;12.53;89.90
73429;BME280;61643;49.564;17.412;2022-10-16T00:53:00;98506.59;;;12.57;89.95
73429;BME280;61643;49.564;17.412;2022-10-16T00:55:27;98506.88;;;12.61;89.90
73429;BME280;61643;49.564;17.412;2022-10-16T00:57:54;98506.66;;;12.67;89.32
73429;BME280;61643;49.564;17.412;2022-10-16T01:00:23;98507.72;;;12.66;89.30
73429;BME280;61643;49.564;17.412;2022-10-16T01:02:54;98503.69;;;12.69;88.73
73429;BME280;61643;49.564;17.412;2022-10-16T01:05:22;98493.72;;;12.69;89.35
73429;BME280;61643;49.564;17.412;2022-10-16T01:08:04;98497.72;;;12.62;89.68
73429;BME280;61643;49.564;17.412;2022-10-16T01:11:05;98498.53;;;12.62;89.55
73429;BME280;61643;49.564;17.412;2022-10-16T01:13:38;98495.31;;;12.65;89.38
73429;BME280;61643;49.564;17.412;2022-10-16T01:16:44;98486.97;;;12.72;89.00
73429;BME280;61643;49.564;17.412;2022-10-16T01:19:19;98488.81;;;12.66;89.42
73429;BME280;61643;49.564;17.412;2022-10-16T01:21:47;98486.94;;;12.67;89.19
73429;BME280;61643;49.564;17.412;2022-10-16T01:40:11;98508.53;;;12.67;90.95
73429;BME280;61643;49.564;17.412;2022-10-16T01:42:41;98509.31;;;12.57;91.36
73429;BME280;61643;49.564;17.412;2022-10-16T01:45:09;98501.72;;;12.54;90.69
73429;BME280;61643;49.564;17.412;2022-10-16T01:47:39;98505.25;;;12.55;91.00
73429;BME280;61643;49.564;17.412;2022-10-16T01:50:06;98511.22;;;12.62;89.61
73429;BME280;61643;49.564;17.412;2022-10-16T01:52:35;98511.75;;;12.64;89.09
73429;BME280;61643;49.564;17.412;2022-10-16T01:55:03;98512.91;;;12.73;88.61
73429;BME280;61643;49.564;17.412;2022-10-16T01:57:32;98526.13;;;12.74;88.74
73429;BME280;61643;49.564;17.412;2022-10-16T02:00:03;98528.00;;;12.74;89.14
73429;BME280;61643;49.564;17.412;2022-10-16T02:02:30;98532.59;;;12.73;88.96
73429;BME280;61643;49.564;17.412;2022-10-16T02:05:10;98530.69;;;12.69;89.34
73429;BME280;61643;49.564;17.412;2022-10-16T02:07:39;98529.88;;;12.73;88.18
73429;BME280;61643;49.564;17.412;2022-10-16T02:10:07;98530.47;;;12.75;88.45
73429;BME280;61643;49.564;17.412;2022-10-16T02:12:35;98523.47;;;12.79;88.58
73429;BME280;61643;49.564;17.412;2022-10-16T02:15:05;98528.06;;;12.84;88.63
73429;BME280;61643;49.564;17.412;2022-10-16T02:17:30;98522.63;;;12.79;89.37
73429;BME280;61643;49.564;17.412;2022-10-16T02:19:57;98530.16;;;12.72;89.23
73429;BME280;61643;49.564;17.412;2022-10-16T02:22:49;98525.59;;;12.72;89.21
73429;BME280;61643;49.564;17.412;2022-10-16T02:30:38;98528.00;;;12.74;89.15
73429;BME280;61643;49.564;17.412;2022-10-16T02:33:07;98532.28;;;12.65;88.98
73429;BME280;61643;49.564;17.412;2022-10-16T02:35:35;98531.53;;;12.74;88.41
73429;BME280;61643;49.564;17.412;2022-10-16T02:38:02;98529.88;;;12.73;89.20
73429;BME280;61643;49.564;17.412;2022-10-16T02:40:28;98529.09;;;12.73;89.35
73429;BME280;61643;49.564;17.412;2022-10-16T02:42:55;98533.97;;;12.76;88.85
73429;BME280;61643;49.564;17.412;2022-10-16T02:45:22;98535.56;;;12.72;88.92
73429;BME280;61643;49.564;17.412;2022-10-16T02:47:48;98527.47;;;12.72;89.02
73429;BME280;61643;49.564;17.412;2022-10-16T02:50:14;98520.72;;;12.69;88.62
73429;BME280;61643;49.564;17.412;2022-10-16T02:52:40;98525.31;;;12.74;88.41
73429;BME280;61643;49.564;17.412;2022-10-16T02:55:06;98526.41;;;12.78;87.80
73429;BME280;61643;49.564;17.412;2022-10-16T02:57:31;98517.47;;;12.72;88.28
73429;BME280;61643;49.564;17.412;2022-10-16T02:59:57;98512.09;;;12.72;87.50
73429;BME280;61643;49.564;17.412;2022-10-16T03:02:22;98509.38;;;12.72;87.63
73429;BME280;61643;49.564;17.412;2022-10-16T03:04:48;98512.09;;;12.72;87.33
73429;BME280;61643;49.564;17.412;2022-10-16T03:07:13;98509.91;;;12.74;87.25
73429;BME280;61643;49.564;17.412;2022-10-16T03:09:38;98493.72;;;12.74;86.86
73429;BME280;61643;49.564;17.412;2022-10-16T03:12:04;98496.41;;;12.69;86.85
73429;BME280;61643;49.564;17.412;2022-10-16T03:14:29;98507.19;;;12.64;86.95
73429;BME280;61643;49.564;17.412;2022-10-16T03:16:54;98509.31;;;12.57;87.01
73429;BME280;61643;49.564;17.412;2022-10-16T03:19:20;98518.47;;;12.56;87.19
73429;BME280;61643;49.564;17.412;2022-10-16T03:21:45;98527.63;;;12.55;87.06
73429;BME280;61643;49.564;17.412;2022-10-16T03:24:11;98539.53;;;12.54;86.73
73429;BME280;61643;49.564;17.412;2022-10-16T03:26:36;98523.88;;;12.56;86.68
73429;BME280;61643;49.564;17.412;2022-10-16T03:29:02;98542.25;;;12.59;86.44
73429;BME280;61643;49.564;17.412;2022-10-16T03:31:28;98543.34;;;12.63;86.52
73429;BME280;61643;49.564;17.412;2022-10-16T03:33:54;98539.25;;;12.56;86.90
73429;BME280;61643;49.564;17.412;2022-10-16T03:36:19;98542.53;;;12.58;86.65
73429;BME280;61643;49.564;17.412;2022-10-16T03:38:45;98548.16;;;12.56;87.18
73429;BME280;61643;49.564;17.412;2022-10-16T03:41:10;98554.91;;;12.59;87.51
73429;BME280;61643;49.564;17.412;2022-10-16T03:43:35;98557.38;;;12.60;87.98
73429;BME280;61643;49.564;17.412;2022-10-16T03:46:01;98561.41;;;12.58;87.59
73429;BME280;61643;49.564;17.412;2022-10-16T03:48:26;98565.09;;;12.42;88.52
73429;BME280;61643;49.564;17.412;2022-10-16T03:50:51;98569.97;;;12.45;88.57
73429;BME280;61643;49.564;17.412;2022-10-16T03:53:17;98567.31;;;12.50;88.82
73429;BME280;61643;49.564;17.412;2022-10-16T03:55:43;98566.47;;;12.49;87.66
73429;BME280;61643;49.564;17.412;2022-10-16T03:58:09;98569.22;;;12.54;87.80
73429;BME280;61643;49.564;17.412;2022-10-16T04:00:34;98570.84;;;12.55;87.76
73429;BME280;61643;49.564;17.412;2022-10-16T04:03:00;98570.00;;;12.50;88.00
73429;BME280;61643;49.564;17.412;2022-10-16T04:05:26;98565.41;;;12.50;87.78
73429;BME280;61643;49.564;17.412;2022-10-16T04:07:51;98570.03;;;12.55;87.00
73429;BME280;61643;49.564;17.412;2022-10-16T04:10:17;98574.91;;;12.58;86.73
73429;BME280;61643;49.564;17.412;2022-10-16T04:12:42;98572.75;;;12.60;86.22
73429;BME280;61643;49.564;17.412;2022-10-16T04:15:08;98564.13;;;12.58;86.21
73429;BME280;61643;49.564;17.412;2022-10-16T04:17:33;98573.53;;;12.55;87.07
73429;BME280;61643;49.564;17.412;2022-10-16T04:19:59;98575.69;;;12.53;86.98
73429;BME280;61643;49.564;17.412;2022-10-16T04:22:24;98576.50;;;12.54;86.56
73429;BME280;61643;49.564;17.412;2022-10-16T04:24:49;98573.53;;;12.50;86.45
73429;BME280;61643;49.564;17.412;2022-10-16T04:27:16;98571.34;;;12.47;86.84
73429;BME280;61643;49.564;17.412;2022-10-16T04:29:41;98562.44;;;12.47;86.42
73429;BME280;61643;49.564;17.412;2022-10-16T04:32:08;98577.03;;;12.51;86.40
73429;BME280;61643;49.564;17.412;2022-10-16T04:34:33;98577.56;;;12.48;86.52
73429;BME280;61643;49.564;17.412;2022-10-16T04:36:59;98570.53;;;12.47;86.86
73429;BME280;61643;49.564;17.412;2022-10-16T04:39:25;98572.41;;;12.46;87.01
73429;BME280;61643;49.564;17.412;2022-10-16T04:41:50;98575.94;;;12.47;86.48
73429;BME280;61643;49.564;17.412;2022-10-16T04:44:15;98568.88;;;12.41;87.36
73429;BME280;61643;49.564;17.412;2022-10-16T04:46:41;98572.66;;;12.45;86.70
73429;BME280;61643;49.564;17.412;2022-10-16T04:49:06;98577.81;;;12.46;86.59
73429;BME280;61643;49.564;17.412;2022-10-16T04:51:32;98571.63;;;12.51;86.52
73429;BME280;61643;49.564;17.412;2022-10-16T04:53:57;98588.38;;;12.53;86.65
73429;BME280;61643;49.564;17.412;2022-10-16T04:56:22;98586.25;;;12.55;86.69
73429;BME280;61643;49.564;17.412;2022-10-16T04:58:48;98595.94;;;12.56;86.81
73429;BME280;61643;49.564;17.412;2022-10-16T05:01:13;98594.34;;;12.55;86.91
73429;BME280;61643;49.564;17.412;2022-10-16T05:03:39;98591.13;;;12.58;86.79
73429;BME280;61643;49.564;17.412;2022-10-16T05:06:07;98593.81;;;12.58;86.15
73429;BME280;61643;49.564;17.412;2022-10-16T05:08:32;98584.63;;;12.59;86.22
73429;BME280;61643;49.564;17.412;2022-10-16T05:10:58;98593.81;;;12.58;86.35
73429;BME280;61643;49.564;17.412;2022-10-16T05:13:23;98593.03;;;12.62;86.03
73429;BME280;61643;49.564;17.412;2022-10-16T05:15:49;98598.13;;;12.59;86.05
73429;BME280;61643;49.564;17.412;2022-10-16T05:18:15;98600.34;;;12.62;86.12
73429;BME280;61643;49.564;17.412;2022-10-16T05:20:41;98599.53;;;12.66;85.62
73429;BME280;61643;49.564;17.412;2022-10-16T05:23:07;98597.94;;;12.70;85.29
73429;BME280;61643;49.564;17.412;2022-10-16T05:25:32;98600.91;;;12.69;85.70
73429;BME280;61643;49.564;17.412;2022-10-16T05:27:58;98592.28;;;12.72;85.47
73429;BME280;61643;49.564;17.412;2022-10-16T05:30:23;98595.00;;;12.72;85.81
73429;BME280;61643;49.564;17.412;2022-10-16T05:32:49;98588.81;;;12.76;85.40
73429;BME280;61643;49.564;17.412;2022-10-16T05:35:16;98596.38;;;12.79;84.98
73429;BME280;61643;49.564;17.412;2022-10-16T05:37:42;98600.69;;;12.80;84.94
73429;BME280;61643;49.564;17.412;2022-10-16T05:40:09;98610.97;;;12.78;85.59
73429;BME280;61643;49.564;17.412;2022-10-16T05:42:34;98614.53;;;12.84;85.26
73429;BME280;61643;49.564;17.412;2022-10-16T05:44:59;98614.28;;;12.91;85.23
73429;BME280;61643;49.564;17.412;2022-10-16T05:47:25;98612.66;;;12.90;85.21
73429;BME280;61643;49.564;17.412;2022-10-16T05:49:51;98618.63;;;12.97;84.99
73429;BME280;61643;49.564;17.412;2022-10-16T05:52:16;98621.63;;;13.00;84.45
73429;BME280;61643;49.564;17.412;2022-10-16T05:54:42;98614.03;;;13.02;83.91
73429;BME280;61643;49.564;17.412;2022-10-16T05:57:08;98633.00;;;13.07;84.39
73429;BME280;61643;49.564;17.412;2022-10-16T05:59:34;98637.66;;;13.12;83.91
73429;BME280;61643;49.564;17.412;2022-10-16T06:01:59;98640.03;;;13.08;84.24
73429;BME280;61643;49.564;17.412;2022-10-16T06:04:24;98643.56;;;13.09;84.21
73429;BME280;61643;49.564;17.412;2022-10-16T06:06:50;98650.34;;;13.11;84.52
73429;BME280;61643;49.564;17.412;2022-10-16T06:09:15;98650.03;;;13.08;84.43
73429;BME280;61643;49.564;17.412;2022-10-16T06:11:40;98651.91;;;13.07;84.65
73429;BME280;61643;49.564;17.412;2022-10-16T06:14:06;98652.44;;;13.04;84.23
73429;BME280;61643;49.564;17.412;2022-10-16T06:16:35;98655.97;;;13.05;84.38
73429;BME280;61643;49.564;17.412;2022-10-16T06:19:00;98648.13;;;13.03;84.45
73429;BME280;61643;49.564;17.412;2022-10-16T06:21:27;98663.78;;;13.01;85.39
73429;BME280;61643;49.564;17.412;2022-10-16T06:23:54;98658.91;;;13.03;85.32
73429;BME280;61643;49.564;17.412;2022-10-16T06:26:23;98661.91;;;13.02;84.92
73429;BME280;61643;49.564;17.412;2022-10-16T06:28:48;98654.34;;;13.04;84.90
73429;BME280;61643;49.564;17.412;2022-10-16T06:31:15;98659.22;;;13.07;84.88
73429;BME280;61643;49.564;17.412;2022-10-16T06:33:40;98666.25;;;13.08;84.99
73429;BME280;61643;49.564;17.412;2022-10-16T06:36:08;98674.94;;;13.10;84.82
73429;BME280;61643;49.564;17.412;2022-10-16T06:38:35;98675.78;;;13.15;85.08
73429;BME280;61643;49.564;17.412;2022-10-16T06:41:01;98675.25;;;13.18;84.54
73429;BME280;61643;49.564;17.412;2022-10-16T06:43:28;98676.63;;;13.21;85.11
73429;BME280;61643;49.564;17.412;2022-10-16T06:45:57;98689.34;;;13.25;84.61
73429;BME280;61643;49.564;17.412;2022-10-16T06:48:23;98688.81;;;13.23;84.62
73429;BME280;61643;49.564;17.412;2022-10-16T06:51:16;98685.53;;;13.21;84.46
73429;BME280;61643;49.564;17.412;2022-10-16T06:53:45;98685.53;;;13.21;84.65
73429;BME280;61643;49.564;17.412;2022-10-16T06:56:16;98685.28;;;13.23;84.90
73429;BME280;61643;49.564;17.412;2022-10-16T06:58:43;98692.06;;;13.25;84.11
73429;BME280;61643;49.564;17.412;2022-10-16T07:01:09;98692.91;;;13.31;83.95
73429;BME280;61643;49.564;17.412;2022-10-16T07:03:40;98701.03;;;13.36;83.96
73429;BME280;61643;49.564;17.412;2022-10-16T07:06:08;98698.63;;;13.40;84.35
73429;BME280;61643;49.564;17.412;2022-10-16T07:08:36;98705.13;;;13.44;83.76
73429;BME280;61643;49.564;17.412;2022-10-16T07:11:06;98715.69;;;13.50;83.90
73429;BME280;61643;49.564;17.412;2022-10-16T07:13:36;98720.31;;;13.55;83.67
73429;BME280;61643;49.564;17.412;2022-10-16T07:16:11;98724.13;;;13.59;83.89
73429;BME280;61643;49.564;17.412;2022-10-16T07:18:37;98723.59;;;13.62;83.24
73429;BME280;61643;49.564;17.412;2022-10-16T07:21:06;98718.22;;;13.67;82.74
73429;BME280;61643;49.564;17.412;2022-10-16T07:23:32;98722.53;;;13.68;82.62
73429;BME280;61643;49.564;17.412;2022-10-16T07:25:58;98722.03;;;13.76;82.50
73429;BME280;61643;49.564;17.412;2022-10-16T07:28:23;98731.53;;;13.84;82.90
73429;BME280;61643;49.564;17.412;2022-10-16T07:30:48;98731.03;;;13.92;82.46
73429;BME280;61643;49.564;17.412;2022-10-16T07:33:14;98737.81;;;14.04;81.89
73429;BME280;61643;49.564;17.412;2022-10-16T07:36:00;98745.44;;;14.12;81.32
73429;BME280;61643;49.564;17.412;2022-10-16T07:38:25;98750.31;;;14.15;79.84
73429;BME280;61643;49.564;17.412;2022-10-16T07:40:59;98739.75;;;14.19;79.95
73429;BME280;61643;49.564;17.412;2022-10-16T07:43:25;98743.03;;;14.21;79.76
73429;BME280;61643;49.564;17.412;2022-10-16T07:45:51;98738.72;;;14.25;80.02
73429;BME280;61643;49.564;17.412;2022-10-16T07:48:17;98732.19;;;14.26;81.20
73429;BME280;61643;49.564;17.412;2022-10-16T07:50:43;98725.97;;;14.25;80.32
73429;BME280;61643;49.564;17.412;2022-10-16T07:53:09;98723.28;;;14.30;79.85
73429;BME280;61643;49.564;17.412;2022-10-16T07:55:34;98724.94;;;14.37;80.23
73429;BME280;61643;49.564;17.412;2022-10-16T07:57:59;98732.81;;;14.38;80.08
73429;BME280;61643;49.564;17.412;2022-10-16T08:00:25;98740.41;;;14.46;79.46
73429;BME280;61643;49.564;17.412;2022-10-16T08:02:50;98736.88;;;14.46;79.56
73429;BME280;61643;49.564;17.412;2022-10-16T08:05:15;98746.06;;;14.45;80.06
73429;BME280;61643;49.564;17.412;2022-10-16T08:07:41;98742.56;;;14.54;79.92
73429;BME280;61643;49.564;17.412;2022-10-16T08:10:09;98749.63;;;14.60;79.32
73429;BME280;61643;49.564;17.412;2022-10-16T08:12:35;98753.16;;;14.61;78.61
73429;BME280;61643;49.564;17.412;2022-10-16T08:15:01;98739.34;;;14.57;78.69
73429;BME280;61643;49.564;17.412;2022-10-16T08:17:26;98733.38;;;14.60;78.85
73429;BME280;61643;49.564;17.412;2022-10-16T08:19:51;98742.31;;;14.61;79.16
73429;BME280;61643;49.564;17.412;2022-10-16T08:22:17;98755.06;;;14.60;79.43
73429;BME280;61643;49.564;17.412;2022-10-16T08:24:42;98761.00;;;14.62;78.78
73429;BME280;61643;49.564;17.412;2022-10-16T08:27:08;98762.06;;;14.61;79.04
73429;BME280;61643;49.564;17.412;2022-10-16T08:29:34;98759.94;;;14.63;78.71
73429;BME280;61643;49.564;17.412;2022-10-16T08:31:59;98767.78;;;14.65;78.38
73429;BME280;61643;49.564;17.412;2022-10-16T08:34:24;98766.97;;;14.64;78.18
73429;BME280;61643;49.564;17.412;2022-10-16T08:36:53;98759.66;;;14.75;77.90
73429;BME280;61643;49.564;17.412;2022-10-16T08:39:18;98779.72;;;14.84;78.20
73429;BME280;61643;49.564;17.412;2022-10-16T08:41:59;98775.38;;;14.88;78.40
73429;BME280;61643;49.564;17.412;2022-10-16T08:49:41;98789.22;;;15.07;77.44
73429;BME280;61643;49.564;17.412;2022-10-16T08:52:12;98785.13;;;15.19;77.16
73429;BME280;61643;49.564;17.412;2022-10-16T08:54:42;98789.75;;;15.29;77.52
73429;BME280;61643;49.564;17.412;2022-10-16T08:57:13;98789.72;;;15.39;78.18
73429;BME280;61643;49.564;17.412;2022-10-16T08:59:39;98791.06;;;15.47;77.46
73429;BME280;61643;49.564;17.412;2022-10-16T09:02:22;98792.72;;;15.53;76.68
73429;BME280;61643;49.564;17.412;2022-10-16T09:07:42;98800.28;;;15.66;76.79
73429;BME280;61643;49.564;17.412;2022-10-16T09:13:03;98804.06;;;15.80;77.50
73429;BME280;61643;49.564;17.412;2022-10-16T09:18:35;98807.56;;;15.91;76.04
73429;BME280;61643;49.564;17.412;2022-10-16T09:21:19;98806.44;;;15.92;75.66
73429;BME280;61643;49.564;17.412;2022-10-16T09:23:46;98809.97;;;15.92;75.96
73429;BME280;61643;49.564;17.412;2022-10-16T09:26:14;98804.78;;;16.01;76.18
73429;BME280;61643;49.564;17.412;2022-10-16T09:28:41;98809.09;;;16.07;76.04
73429;BME280;61643;49.564;17.412;2022-10-16T09:31:25;98805.03;;;16.09;76.46
73429;BME280;61643;49.564;17.412;2022-10-16T09:33:54;98806.38;;;16.12;76.69
73429;BME280;61643;49.564;17.412;2022-10-16T09:36:23;98801.22;;;16.10;75.20
73429;BME280;61643;49.564;17.412;2022-10-16T09:39:02;98805.56;;;16.16;74.71
73429;BME280;61643;49.564;17.412;2022-10-16T09:41:28;98807.72;;;16.14;75.87
73429;BME280;61643;49.564;17.412;2022-10-16T09:43:56;98810.69;;;16.23;75.42
73429;BME280;61643;49.564;17.412;2022-10-16T09:46:31;98811.13;;;16.35;74.75
73429;BME280;61643;49.564;17.412;2022-10-16T09:49:04;98811.13;;;16.45;74.54
73429;BME280;61643;49.564;17.412;2022-10-16T09:51:35;98818.91;;;16.62;74.22
73429;BME280;61643;49.564;17.412;2022-10-16T09:56:34;98806.81;;;16.83;73.51
73429;BME280;61643;49.564;17.412;2022-10-16T09:59:08;98822.03;;;16.89;74.33
73429;BME280;61643;49.564;17.412;2022-10-16T10:01:46;98813.53;;;16.96;72.13
73429;BME280;61643;49.564;17.412;2022-10-16T10:04:12;98815.13;;;17.02;72.49
73429;BME280;61643;49.564;17.412;2022-10-16T10:06:44;98823.06;;;16.93;72.60
73429;BME280;61643;49.564;17.412;2022-10-16T10:09:23;98819.78;;;16.96;71.91
73429;BME280;61643;49.564;17.412;2022-10-16T10:19:29;98819.78;;;16.96;71.81
73429;BME280;61643;49.564;17.412;2022-10-16T10:21:55;98826.25;;;17.00;72.21
73429;BME280;61643;49.564;17.412;2022-10-16T10:24:20;98817.50;;;17.08;71.57
73429;BME280;61643;49.564;17.412;2022-10-16T10:29:26;98819.88;;;17.20;70.82
73429;BME280;61643;49.564;17.412;2022-10-16T10:32:30;98823.88;;;17.28;71.38
73429;BME280;61643;49.564;17.412;2022-10-16T10:35:23;98831.94;;;17.38;71.39
73429;BME280;61643;49.564;17.412;2022-10-16T10:46:04;98809.97;;;17.29;70.56
73429;BME280;61643;49.564;17.412;2022-10-16T10:49:31;98816.53;;;17.28;71.74
73429;BME280;61643;49.564;17.412;2022-10-16T10:51:28;98814.69;;;17.18;72.21
73429;BME280;61643;49.564;17.412;2022-10-16T10:54:17;98818.22;;;17.19;72.56
73429;BME280;61643;49.564;17.412;2022-10-16T10:57:02;98816.38;;;17.14;71.60
73429;BME280;61643;49.564;17.412;2022-10-16T11:00:00;98814.50;;;17.10;71.30
73429;BME280;61643;49.564;17.412;2022-10-16T11:03:06;98804.47;;;17.05;72.34
73429;BME280;61643;49.564;17.412;2022-10-16T11:08:38;98797.56;;;16.89;71.82
73429;BME280;61643;49.564;17.412;2022-10-16T11:11:19;98804.25;;;16.97;72.63
73429;BME280;61643;49.564;17.412;2022-10-16T11:13:58;98813.78;;;16.99;72.28
73429;BME280;61643;49.564;17.412;2022-10-16T11:16:39;98820.22;;;17.08;72.60
73429;BME280;61643;49.564;17.412;2022-10-16T11:19:13;98813.59;;;17.19;71.01
73429;BME280;61643;49.564;17.412;2022-10-16T11:21:54;98804.84;;;17.28;71.56
73429;BME280;61643;49.564;17.412;2022-10-16T11:24:55;98802.31;;;17.36;70.40
73429;BME280;61643;49.564;17.412;2022-10-16T11:27:33;98805.78;;;17.42;69.92
73429;BME280;61643;49.564;17.412;2022-10-16T11:30:02;98791.38;;;17.41;70.68
73429;BME280;61643;49.564;17.412;2022-10-16T11:32:34;98804.38;;;17.49;70.36
73429;BME280;61643;49.564;17.412;2022-10-16T11:35:13;98796.47;;;17.48;69.51
73429;BME280;61643;49.564;17.412;2022-10-16T11:37:43;98804.06;;;17.51;70.56
73429;BME280;61643;49.564;17.412;2022-10-16T11:40:16;98807.31;;;17.53;69.56
73429;BME280;61643;49.564;17.412;2022-10-16T11:42:50;98810.03;;;17.53;69.64
73429;BME280;61643;49.564;17.412;2022-10-16T11:45:39;98816.81;;;17.60;69.50
73429;BME280;61643;49.564;17.412;2022-10-16T11:48:20;98812.69;;;17.63;69.40
73429;BME280;61643;49.564;17.412;2022-10-16T11:51:09;98814.09;;;17.55;68.61
73429;BME280;61643;49.564;17.412;2022-10-16T11:56:07;98814.09;;;17.55;69.71
73429;BME280;61643;49.564;17.412;2022-10-16T11:58:58;98804.06;;;17.51;69.23
73429;BME280;61643;49.564;17.412;2022-10-16T12:01:42;98804.59;;;17.53;69.93
73429;BME280;61643;49.564;17.412;2022-10-16T12:06:51;98793.13;;;17.61;69.92
73429;BME280;61643;49.564;17.412;2022-10-16T12:09:27;98796.59;;;17.66;69.59
73429;BME280;61643;49.564;17.412;2022-10-16T12:11:54;98795.97;;;17.75;68.76
73429;BME280;61643;49.564;17.412;2022-10-16T12:16:58;98801.28;;;17.85;68.64
73429;BME280;61643;49.564;17.412;2022-10-16T12:19:30;98807.50;;;17.90;68.44
73429;BME280;61643;49.564;17.412;2022-10-16T12:22:01;98806.94;;;17.93;68.35
73429;BME280;61643;49.564;17.412;2022-10-16T12:24:38;98807.38;;;18.00;67.99
73429;BME280;61643;49.564;17.412;2022-10-16T12:27:29;98802.41;;;18.07;68.30
73429;BME280;61643;49.564;17.412;2022-10-16T12:30:03;98796.13;;;18.07;67.58
73429;BME280;61643;49.564;17.412;2022-10-16T12:32:35;98794.88;;;17.99;66.82
73429;BME280;61643;49.564;17.412;2022-10-16T12:35:02;98802.00;;;17.95;68.58
73429;BME280;61643;49.564;17.412;2022-10-16T12:37:36;98798.69;;;17.98;68.48
73429;BME280;61643;49.564;17.412;2022-10-16T12:40:14;98805.72;;;18.04;68.31
73429;BME280;61643;49.564;17.412;2022-10-16T12:42:41;98804.81;;;18.09;67.94
73429;BME280;61643;49.564;17.412;2022-10-16T12:45:24;98810.50;;;18.12;67.93
73429;BME280;61643;49.564;17.412;2022-10-16T12:47:52;98815.63;;;18.19;68.01
73429;BME280;61643;49.564;17.412;2022-10-16T12:50:31;98817.53;;;18.18;67.21
73429;BME280;61643;49.564;17.412;2022-10-16T12:52:57;98817.81;;;18.17;67.25
73429;BME280;61643;49.564;17.412;2022-10-16T12:55:23;98811.53;;;18.16;67.31
73429;BME280;61643;49.564;17.412;2022-10-16T12:58:04;98810.94;;;18.19;67.67
73429;BME280;61643;49.564;17.412;2022-10-16T13:28:08;98835.75;;;17.94;67.85
73429;BME280;61643;49.564;17.412;2022-10-16T13:35:56;98832.81;;;17.91;67.66
73429;BME280;61643;49.564;17.412;2022-10-16T13:38:24;98833.34;;;17.93;67.65
73429;BME280;61643;49.564;17.412;2022-10-16T13:40:59;98841.78;;;17.91;67.88
73429;BME280;61643;49.564;17.412;2022-10-16T13:43:29;98841.78;;;17.91;67.79
73429;BME280;61643;49.564;17.412;2022-10-16T13:46:05;98836.66;;;17.90;68.09
73429;BME280;61643;49.564;17.412;2022-10-16T13:48:32;98838.84;;;17.88;67.48
73429;BME280;61643;49.564;17.412;2022-10-16T13:51:32;98845.63;;;17.90;67.68
73429;BME280;61643;49.564;17.412;2022-10-16T13:53:51;98844.47;;;17.96;67.70
73429;BME280;61643;49.564;17.412;2022-10-16T13:56:27;98845.75;;;18.04;66.49
73429;BME280;61643;49.564;17.412;2022-10-16T13:59:05;98847.06;;;18.06;66.23
73429;BME280;61643;49.564;17.412;2022-10-16T14:01:34;98861.75;;;18.10;66.35
73429;BME280;61643;49.564;17.412;2022-10-16T14:04:08;98855.22;;;18.11;66.14
73429;BME280;61643;49.564;17.412;2022-10-16T14:06:36;98854.91;;;18.13;66.34
73429;BME280;61643;49.564;17.412;2022-10-16T14:09:06;98851.44;;;18.07;66.24
73429;BME280;61643;49.564;17.412;2022-10-16T14:11:45;98865.56;;;18.09;66.02
73429;BME280;61643;49.564;17.412;2022-10-16T14:14:12;98865.34;;;18.06;66.18
73429;BME280;61643;49.564;17.412;2022-10-16T14:16:40;98863.78;;;18.00;65.71
73429;BME280;61643;49.564;17.412;2022-10-16T14:19:19;98868.13;;;18.01;66.37
73429;BME280;61643;49.564;17.412;2022-10-16T14:21:45;98865.63;;;18.04;66.50
73429;BME280;61643;49.564;17.412;2022-10-16T14:24:13;98869.47;;;18.03;66.90
73429;BME280;61643;49.564;17.412;2022-10-16T14:26:45;98870.03;;;18.00;67.22
73429;BME280;61643;49.564;17.412;2022-10-16T14:29:15;98870.91;;;17.96;67.22
73429;BME280;61643;49.564;17.412;2022-10-16T14:31:42;98871.75;;;17.91;67.40
73429;BME280;61643;49.564;17.412;2022-10-16T14:34:31;98876.44;;;17.86;67.68
73429;BME280;61643;49.564;17.412;2022-10-16T14:37:22;98872.94;;;17.80;68.11
73429;BME280;61643;49.564;17.412;2022-10-16T14:39:49;98877.94;;;17.73;68.37
73429;BME280;61643;49.564;17.412;2022-10-16T14:42:16;98870.88;;;17.72;68.80
73429;BME280;61643;49.564;17.412;2022-10-16T14:44:44;98878.75;;;17.74;69.12
73429;BME280;61643;49.564;17.412;2022-10-16T14:47:16;98882.78;;;17.76;69.35